sensor_id;sensor_type;location;lat;lon;timestamp;temperature;humidity
29345;DHT22;16339;48.748;2.222;2023-07-29T02:00:34;22.90;92.50
29345;DHT22;16339;48.748;2.222;2023-07-29T02:06:33;22.80;92.40
29345;DHT22;16339;48.748;2.222;2023-07-29T02:12:19;22.70;92.70
29345;DHT22;16339;48.748;2.222;2023-07-29T02:14:48;22.70;93.00
29345;DHT22;16339;48.748;2.222;2023-07-29T02:17:21;22.80;93.20
29345;DHT22;16339;48.748;2.222;2023-07-29T02:19:57;22.70;93.00
29345;DHT22;16339;48.748;2.222;2023-07-29T02:22:26;22.70;92.80
29345;DHT22;16339;48.748;2.222;2023-07-29T02:24:56;22.70;92.90
29345;DHT22;16339;48.748;2.222;2023-07-29T02:27:27;22.60;92.90
29345;DHT22;16339;48.748;2.222;2023-07-29T02:30:05;22.60;92.90
29345;DHT22;16339;48.748;2.222;2023-07-29T03:23:01;22.20;93.30
29345;DHT22;16339;48.748;2.222;2023-07-29T03:25:32;22.10;93.20
29345;DHT22;16339;48.748;2.222;2023-07-29T03:28:01;22.20;93.30
29345;DHT22;16339;48.748;2.222;2023-07-29T03:43:28;22.00;93.60
29345;DHT22;16339;48.748;2.222;2023-07-29T03:47:15;21.90;93.60
29345;DHT22;16339;48.748;2.222;2023-07-29T04:13:59;21.90;93.70
29345;DHT22;16339;48.748;2.222;2023-07-29T04:17:11;21.80;93.60
29345;DHT22;16339;48.748;2.222;2023-07-29T04:19:56;21.90;93.80
29345;DHT22;16339;48.748;2.222;2023-07-29T04:26:02;21.80;93.80
29345;DHT22;16339;48.748;2.222;2023-07-29T04:28:35;21.80;93.70
29345;DHT22;16339;48.748;2.222;2023-07-29T04:31:18;21.80;93.80
29345;DHT22;16339;48.748;2.222;2023-07-29T04:34:17;21.80;93.70
29345;DHT22;16339;48.748;2.222;2023-07-29T04:47:59;21.90;93.50
29345;DHT22;16339;48.748;2.222;2023-07-29T04:57:49;22.10;93.70
29345;DHT22;16339;48.748;2.222;2023-07-29T05:00:55;22.10;93.50
29345;DHT22;16339;48.748;2.222;2023-07-29T05:03:45;22.10;93.60
29345;DHT22;16339;48.748;2.222;2023-07-29T05:06:13;22.20;93.50
29345;DHT22;16339;48.748;2.222;2023-07-29T05:08:44;22.20;93.40
29345;DHT22;16339;48.748;2.222;2023-07-29T05:11:13;22.20;93.40
29345;DHT22;16339;48.748;2.222;2023-07-29T05:13:44;22.20;93.30
29345;DHT22;16339;48.748;2.222;2023-07-29T05:17:48;22.20;93.30
29345;DHT22;16339;48.748;2.222;2023-07-29T05:30:30;22.10;93.50
29345;DHT22;16339;48.748;2.222;2023-07-29T05:40:20;22.10;93.20
29345;DHT22;16339;48.748;2.222;2023-07-29T06:28:01;21.80;93.00
29345;DHT22;16339;48.748;2.222;2023-07-29T06:30:36;21.70;93.20
29345;DHT22;16339;48.748;2.222;2023-07-29T06:33:07;21.90;93.00
29345;DHT22;16339;48.748;2.222;2023-07-29T06:35:41;21.90;93.00
29345;DHT22;16339;48.748;2.222;2023-07-29T06:38:39;21.90;93.10
29345;DHT22;16339;48.748;2.222;2023-07-29T06:41:26;21.80;93.30
29345;DHT22;16339;48.748;2.222;2023-07-29T06:44:21;21.80;92.90
29345;DHT22;16339;48.748;2.222;2023-07-29T06:47:33;22.00;92.90
29345;DHT22;16339;48.748;2.222;2023-07-29T06:50:13;22.00;93.00
29345;DHT22;16339;48.748;2.222;2023-07-29T06:53:11;22.20;92.80
29345;DHT22;16339;48.748;2.222;2023-07-29T06:56:06;22.20;92.80
29345;DHT22;16339;48.748;2.222;2023-07-29T06:59:04;22.40;92.80
29345;DHT22;16339;48.748;2.222;2023-07-29T07:01:41;22.30;92.30
29345;DHT22;16339;48.748;2.222;2023-07-29T07:04:14;22.30;92.40
29345;DHT22;16339;48.748;2.222;2023-07-29T07:34:40;22.60;91.90
29345;DHT22;16339;48.748;2.222;2023-07-29T07:37:12;22.50;92.20
29345;DHT22;16339;48.748;2.222;2023-07-29T07:39:41;22.30;92.00
29345;DHT22;16339;48.748;2.222;2023-07-29T07:42:10;22.50;92.10
29345;DHT22;16339;48.748;2.222;2023-07-29T07:44:44;22.50;91.70
29345;DHT22;16339;48.748;2.222;2023-07-29T08:06:55;22.70;91.80
29345;DHT22;16339;48.748;2.222;2023-07-29T08:12:13;22.90;91.60
29345;DHT22;16339;48.748;2.222;2023-07-29T08:30:45;23.30;91.10
29345;DHT22;16339;48.748;2.222;2023-07-29T08:33:31;23.30;90.90
29345;DHT22;16339;48.748;2.222;2023-07-29T08:36:23;23.30;91.00
29345;DHT22;16339;48.748;2.222;2023-07-29T08:39:00;23.30;91.00
29345;DHT22;16339;48.748;2.222;2023-07-29T08:41:32;23.30;91.00
29345;DHT22;16339;48.748;2.222;2023-07-29T08:44:11;23.40;90.70
29345;DHT22;16339;48.748;2.222;2023-07-29T08:46:51;23.50;90.50
29345;DHT22;16339;48.748;2.222;2023-07-29T08:49:44;23.40;90.00
29345;DHT22;16339;48.748;2.222;2023-07-29T08:52:17;23.30;90.50
29345;DHT22;16339;48.748;2.222;2023-07-29T08:54:58;23.30;90.40
29345;DHT22;16339;48.748;2.222;2023-07-29T08:57:53;23.40;90.10
29345;DHT22;16339;48.748;2.222;2023-07-29T09:00:59;23.40;90.00
29345;DHT22;16339;48.748;2.222;2023-07-29T09:03:31;23.30;90.20
29345;DHT22;16339;48.748;2.222;2023-07-29T09:06:08;23.40;90.10
29345;DHT22;16339;48.748;2.222;2023-07-29T09:08:43;23.40;90.10
29345;DHT22;16339;48.748;2.222;2023-07-29T09:11:20;23.40;90.00
29345;DHT22;16339;48.748;2.222;2023-07-29T09:13:58;23.50;90.20
29345;DHT22;16339;48.748;2.222;2023-07-29T09:16:50;23.50;90.20
29345;DHT22;16339;48.748;2.222;2023-07-29T09:19:28;23.50;90.00
29345;DHT22;16339;48.748;2.222;2023-07-29T09:21:56;23.60;90.00
29345;DHT22;16339;48.748;2.222;2023-07-29T09:24:28;23.70;90.10
29345;DHT22;16339;48.748;2.222;2023-07-29T09:27:10;23.80;90.00
29345;DHT22;16339;48.748;2.222;2023-07-29T09:29:55;23.80;89.40
29345;DHT22;16339;48.748;2.222;2023-07-29T09:33:25;23.70;89.60
29345;DHT22;16339;48.748;2.222;2023-07-29T09:39:28;23.90;89.30
29345;DHT22;16339;48.748;2.222;2023-07-29T09:42:22;24.00;89.90
29345;DHT22;16339;48.748;2.222;2023-07-29T09:55:17;24.30;89.20
29345;DHT22;16339;48.748;2.222;2023-07-29T09:58:26;24.00;88.70
29345;DHT22;16339;48.748;2.222;2023-07-29T12:13:55;25.20;90.30
29345;DHT22;16339;48.748;2.222;2023-07-29T12:16:30;25.40;90.40
29345;DHT22;16339;48.748;2.222;2023-07-29T12:19:07;25.60;90.30
29345;DHT22;16339;48.748;2.222;2023-07-29T12:21:45;25.70;89.50
29345;DHT22;16339;48.748;2.222;2023-07-29T12:24:14;25.90;90.00
29345;DHT22;16339;48.748;2.222;2023-07-29T12:26:49;26.00;89.30
29345;DHT22;16339;48.748;2.222;2023-07-29T12:29:19;25.90;88.40
29345;DHT22;16339;48.748;2.222;2023-07-29T12:31:48;25.90;88.10
29345;DHT22;16339;48.748;2.222;2023-07-29T12:34:19;26.00;88.80
29345;DHT22;16339;48.748;2.222;2023-07-29T12:36:50;26.00;87.20
29345;DHT22;16339;48.748;2.222;2023-07-29T12:39:22;25.80;88.30
29345;DHT22;16339;48.748;2.222;2023-07-29T12:41:55;25.80;88.20
29345;DHT22;16339;48.748;2.222;2023-07-29T12:44:31;25.70;89.20
29345;DHT22;16339;48.748;2.222;2023-07-29T12:47:21;25.70;88.80
29345;DHT22;16339;48.748;2.222;2023-07-29T12:49:55;25.70;89.40
29345;DHT22;16339;48.748;2.222;2023-07-29T12:52:26;25.80;88.90
29345;DHT22;16339;48.748;2.222;2023-07-29T12:54:55;25.90;88.60
29345;DHT22;16339;48.748;2.222;2023-07-29T13:00:38;26.20;86.40
29345;DHT22;16339;48.748;2.222;2023-07-29T13:03:06;26.40;86.70
29345;DHT22;16339;48.748;2.222;2023-07-29T13:05:35;26.50;84.20
29345;DHT22;16339;48.748;2.222;2023-07-29T13:08:04;26.70;84.70
29345;DHT22;16339;48.748;2.222;2023-07-29T13:10:33;26.80;84.30
29345;DHT22;16339;48.748;2.222;2023-07-29T13:13:01;26.80;82.70
29345;DHT22;16339;48.748;2.222;2023-07-29T13:15:30;26.80;82.40
29345;DHT22;16339;48.748;2.222;2023-07-29T13:18:02;26.60;83.50
29345;DHT22;16339;48.748;2.222;2023-07-29T13:20:33;26.50;83.20
29345;DHT22;16339;48.748;2.222;2023-07-29T13:23:03;26.60;84.20
29345;DHT22;16339;48.748;2.222;2023-07-29T13:25:32;26.70;82.70
29345;DHT22;16339;48.748;2.222;2023-07-29T13:28:00;26.70;81.30
29345;DHT22;16339;48.748;2.222;2023-07-29T13:30:30;26.70;82.10
29345;DHT22;16339;48.748;2.222;2023-07-29T13:33:02;26.80;81.90
29345;DHT22;16339;48.748;2.222;2023-07-29T13:35:31;27.00;82.10
29345;DHT22;16339;48.748;2.222;2023-07-29T13:38:00;27.00;79.20
29345;DHT22;16339;48.748;2.222;2023-07-29T13:40:29;26.90;79.20
29345;DHT22;16339;48.748;2.222;2023-07-29T13:42:59;26.70;79.80
29345;DHT22;16339;48.748;2.222;2023-07-29T13:45:28;26.70;79.20
29345;DHT22;16339;48.748;2.222;2023-07-29T13:47:57;26.60;80.50
29345;DHT22;16339;48.748;2.222;2023-07-29T13:50:28;26.60;82.10
29345;DHT22;16339;48.748;2.222;2023-07-29T13:52:57;26.60;81.10
29345;DHT22;16339;48.748;2.222;2023-07-29T13:55:26;26.60;82.00
29345;DHT22;16339;48.748;2.222;2023-07-29T13:57:55;26.50;82.30
29345;DHT22;16339;48.748;2.222;2023-07-29T14:00:26;26.50;81.60
29345;DHT22;16339;48.748;2.222;2023-07-29T14:02:55;26.40;82.30
29345;DHT22;16339;48.748;2.222;2023-07-29T14:05:23;26.30;82.20
29345;DHT22;16339;48.748;2.222;2023-07-29T14:07:55;26.30;83.10
29345;DHT22;16339;48.748;2.222;2023-07-29T14:10:24;26.30;82.40
29345;DHT22;16339;48.748;2.222;2023-07-29T14:12:53;26.40;82.50
29345;DHT22;16339;48.748;2.222;2023-07-29T14:15:22;26.20;82.80
29345;DHT22;16339;48.748;2.222;2023-07-29T14:17:51;26.40;84.10
29345;DHT22;16339;48.748;2.222;2023-07-29T14:20:20;26.50;83.40
29345;DHT22;16339;48.748;2.222;2023-07-29T14:22:49;26.70;83.20
29345;DHT22;16339;48.748;2.222;2023-07-29T14:25:21;26.80;83.10
29345;DHT22;16339;48.748;2.222;2023-07-29T14:27:51;26.90;83.20
29345;DHT22;16339;48.748;2.222;2023-07-29T14:30:20;27.00;83.10
29345;DHT22;16339;48.748;2.222;2023-07-29T14:32:51;27.10;82.10
29345;DHT22;16339;48.748;2.222;2023-07-29T14:35:22;27.30;82.40
29345;DHT22;16339;48.748;2.222;2023-07-29T14:37:51;27.30;80.60
29345;DHT22;16339;48.748;2.222;2023-07-29T14:40:22;27.40;80.20
29345;DHT22;16339;48.748;2.222;2023-07-29T14:42:52;27.30;80.20
29345;DHT22;16339;48.748;2.222;2023-07-29T14:45:21;27.30;79.10
29345;DHT22;16339;48.748;2.222;2023-07-29T14:47:50;27.40;78.30
29345;DHT22;16339;48.748;2.222;2023-07-29T14:50:19;27.40;77.90
29345;DHT22;16339;48.748;2.222;2023-07-29T14:52:47;27.50;77.20
29345;DHT22;16339;48.748;2.222;2023-07-29T14:55:16;27.40;77.00
29345;DHT22;16339;48.748;2.222;2023-07-29T14:57:48;27.50;77.80
29345;DHT22;16339;48.748;2.222;2023-07-29T15:00:17;27.60;76.70
29345;DHT22;16339;48.748;2.222;2023-07-29T15:02:46;27.60;76.00
29345;DHT22;16339;48.748;2.222;2023-07-29T15:05:15;27.60;76.80
29345;DHT22;16339;48.748;2.222;2023-07-29T15:07:46;27.60;77.60
29345;DHT22;16339;48.748;2.222;2023-07-29T15:10:15;27.70;77.20
29345;DHT22;16339;48.748;2.222;2023-07-29T15:13:01;27.80;77.80
29345;DHT22;16339;48.748;2.222;2023-07-29T15:15:30;27.80;77.50
29345;DHT22;16339;48.748;2.222;2023-07-29T15:17:59;27.60;77.80
29345;DHT22;16339;48.748;2.222;2023-07-29T15:20:27;27.60;78.30
29345;DHT22;16339;48.748;2.222;2023-07-29T15:22:56;27.50;79.00
29345;DHT22;16339;48.748;2.222;2023-07-29T15:25:25;27.40;81.00
29345;DHT22;16339;48.748;2.222;2023-07-29T15:27:54;27.30;81.80
29345;DHT22;16339;48.748;2.222;2023-07-29T15:30:26;27.10;82.10
29345;DHT22;16339;48.748;2.222;2023-07-29T15:32:55;26.90;82.70
29345;DHT22;16339;48.748;2.222;2023-07-29T17:28:39;27.20;77.70
29345;DHT22;16339;48.748;2.222;2023-07-29T17:31:33;27.10;78.00
29345;DHT22;16339;48.748;2.222;2023-07-29T17:34:10;27.10;78.80
29345;DHT22;16339;48.748;2.222;2023-07-29T17:37:17;27.00;79.10
29345;DHT22;16339;48.748;2.222;2023-07-29T17:39:48;26.90;79.70
29345;DHT22;16339;48.748;2.222;2023-07-29T17:42:17;26.80;80.80
29345;DHT22;16339;48.748;2.222;2023-07-29T17:44:49;26.50;84.60
29345;DHT22;16339;48.748;2.222;2023-07-29T17:47:18;26.20;85.10
29345;DHT22;16339;48.748;2.222;2023-07-29T17:49:50;26.10;88.80
29345;DHT22;16339;48.748;2.222;2023-07-29T17:52:22;26.10;90.70
29345;DHT22;16339;48.748;2.222;2023-07-29T17:54:51;26.20;90.90
29345;DHT22;16339;48.748;2.222;2023-07-29T17:57:22;26.40;90.80
29345;DHT22;16339;48.748;2.222;2023-07-29T17:59:56;26.60;90.70
29345;DHT22;16339;48.748;2.222;2023-07-29T18:02:25;26.80;91.00
29345;DHT22;16339;48.748;2.222;2023-07-29T18:05:22;26.90;90.80
29345;DHT22;16339;48.748;2.222;2023-07-29T18:11:04;27.10;89.40
29345;DHT22;16339;48.748;2.222;2023-07-29T18:14:25;27.10;90.30
29345;DHT22;16339;48.748;2.222;2023-07-29T18:17:59;27.00;88.70
29345;DHT22;16339;48.748;2.222;2023-07-29T18:20:44;26.90;88.00
29345;DHT22;16339;48.748;2.222;2023-07-29T20:04:33;25.00;91.00
29345;DHT22;16339;48.748;2.222;2023-07-29T20:38:08;24.50;91.40
29345;DHT22;16339;48.748;2.222;2023-07-29T20:41:22;24.50;91.70
29345;DHT22;16339;48.748;2.222;2023-07-29T20:51:25;24.40;91.90
29345;DHT22;16339;48.748;2.222;2023-07-29T21:27:03;24.30;91.90
29345;DHT22;16339;48.748;2.222;2023-07-29T21:36:47;24.40;91.40
29345;DHT22;16339;48.748;2.222;2023-07-29T21:57:08;23.40;93.00
29345;DHT22;16339;48.748;2.222;2023-07-29T21:59:56;23.20;93.70
29345;DHT22;16339;48.748;2.222;2023-07-29T22:02:44;23.00;94.10
29345;DHT22;16339;48.748;2.222;2023-07-29T22:05:27;22.90;94.30
29345;DHT22;16339;48.748;2.222;2023-07-29T22:08:06;22.80;94.30
29345;DHT22;16339;48.748;2.222;2023-07-29T22:11:06;22.60;94.20
29345;DHT22;16339;48.748;2.222;2023-07-29T22:14:10;22.70;94.30
29345;DHT22;16339;48.748;2.222;2023-07-29T22:16:56;22.60;94.40
29345;DHT22;16339;48.748;2.222;2023-07-29T22:19:29;22.60;94.00
29345;DHT22;16339;48.748;2.222;2023-07-29T22:24:34;22.40;93.40
29345;DHT22;16339;48.748;2.222;2023-07-29T22:25:32;22.30;93.80
29345;DHT22;16339;48.748;2.222;2023-07-29T22:28:12;22.20;93.40
29345;DHT22;16339;48.748;2.222;2023-07-29T22:31:06;22.20;93.40
29345;DHT22;16339;48.748;2.222;2023-07-29T22:34:00;22.20;93.20
29345;DHT22;16339;48.748;2.222;2023-07-29T22:37:13;22.20;93.10
